sensor_id;sensor_type;location;lat;lon;timestamp;P1;durP1;ratioP1;P2;durP2;ratioP2
5678;SDS011;2862;52.560;13.566;2023-02-15T00:02:19;61.60;;;25.20;;
5678;SDS011;2862;52.560;13.566;2023-02-15T00:12:23;66.33;;;28.37;;
5678;SDS011;2862;52.560;13.566;2023-02-15T00:22:26;66.63;;;26.87;;
5678;SDS011;2862;52.560;13.566;2023-02-15T00:32:30;67.90;;;26.07;;
5678;SDS011;2862;52.560;13.566;2023-02-15T00:42:33;62.07;;;27.20;;
5678;SDS011;2862;52.560;13.566;2023-02-15T00:52:37;66.90;;;26.40;;
5678;SDS011;2862;52.560;13.566;2023-02-15T01:02:41;65.67;;;25.70;;
5678;SDS011;2862;52.560;13.566;2023-02-15T01:12:46;62.60;;;25.10;;
5678;SDS011;2862;52.560;13.566;2023-02-15T01:22:49;67.77;;;28.23;;
5678;SDS011;2862;52.560;13.566;2023-02-15T01:32:54;74.27;;;31.33;;
5678;SDS011;2862;52.560;13.566;2023-02-15T01:42:57;69.07;;;29.97;;
5678;SDS011;2862;52.560;13.566;2023-02-15T01:53:03;72.33;;;29.30;;
5678;SDS011;2862;52.560;13.566;2023-02-15T02:03:10;78.87;;;30.10;;
5678;SDS011;2862;52.560;13.566;2023-02-15T02:13:15;95.90;;;32.60;;
5678;SDS011;2862;52.560;13.566;2023-02-15T02:23:23;103.83;;;32.70;;
5678;SDS011;2862;52.560;13.566;2023-02-15T02:33:43;94.83;;;32.30;;
5678;SDS011;2862;52.560;13.566;2023-02-15T02:43:57;92.23;;;33.60;;
5678;SDS011;2862;52.560;13.566;2023-02-15T02:54:08;89.13;;;31.97;;
5678;SDS011;2862;52.560;13.566;2023-02-15T03:04:14;92.40;;;32.77;;
5678;SDS011;2862;52.560;13.566;2023-02-15T03:14:22;101.27;;;35.27;;
5678;SDS011;2862;52.560;13.566;2023-02-15T03:24:26;99.33;;;35.23;;
5678;SDS011;2862;52.560;13.566;2023-02-15T03:34:36;106.93;;;37.00;;
5678;SDS011;2862;52.560;13.566;2023-02-15T03:44:44;98.40;;;33.67;;
5678;SDS011;2862;52.560;13.566;2023-02-15T03:54:54;93.77;;;35.77;;
5678;SDS011;2862;52.560;13.566;2023-02-15T04:04:58;92.43;;;31.80;;
5678;SDS011;2862;52.560;13.566;2023-02-15T04:15:03;94.53;;;32.20;;
5678;SDS011;2862;52.560;13.566;2023-02-15T04:25:25;90.20;;;32.90;;
5678;SDS011;2862;52.560;13.566;2023-02-15T04:35:29;106.23;;;38.43;;
5678;SDS011;2862;52.560;13.566;2023-02-15T04:45:33;107.73;;;34.73;;
5678;SDS011;2862;52.560;13.566;2023-02-15T04:55:38;98.40;;;33.17;;
5678;SDS011;2862;52.560;13.566;2023-02-15T05:05:42;99.87;;;34.40;;
5678;SDS011;2862;52.560;13.566;2023-02-15T05:15:49;97.67;;;36.67;;
5678;SDS011;2862;52.560;13.566;2023-02-15T05:25:53;108.73;;;35.33;;
5678;SDS011;2862;52.560;13.566;2023-02-15T05:36:15;105.30;;;36.50;;
5678;SDS011;2862;52.560;13.566;2023-02-15T05:46:19;93.20;;;32.90;;
5678;SDS011;2862;52.560;13.566;2023-02-15T05:56:27;99.73;;;35.00;;
5678;SDS011;2862;52.560;13.566;2023-02-15T06:06:30;99.97;;;36.10;;
5678;SDS011;2862;52.560;13.566;2023-02-15T06:16:43;105.83;;;34.83;;
5678;SDS011;2862;52.560;13.566;2023-02-15T06:26:47;109.37;;;35.47;;
5678;SDS011;2862;52.560;13.566;2023-02-15T06:36:51;109.10;;;38.27;;
5678;SDS011;2862;52.560;13.566;2023-02-15T06:46:54;109.67;;;36.73;;
5678;SDS011;2862;52.560;13.566;2023-02-15T06:56:59;138.70;;;50.77;;
5678;SDS011;2862;52.560;13.566;2023-02-15T07:07:02;137.90;;;41.80;;
5678;SDS011;2862;52.560;13.566;2023-02-15T07:17:07;121.33;;;37.30;;
5678;SDS011;2862;52.560;13.566;2023-02-15T07:27:31;97.00;;;32.73;;
5678;SDS011;2862;52.560;13.566;2023-02-15T07:37:35;185.03;;;32.47;;
5678;SDS011;2862;52.560;13.566;2023-02-15T07:47:39;98.37;;;32.47;;
5678;SDS011;2862;52.560;13.566;2023-02-15T07:57:43;121.23;;;32.10;;
5678;SDS011;2862;52.560;13.566;2023-02-15T08:07:46;108.50;;;33.10;;
5678;SDS011;2862;52.560;13.566;2023-02-15T08:17:50;110.17;;;31.47;;
5678;SDS011;2862;52.560;13.566;2023-02-15T08:27:53;107.70;;;35.47;;
5678;SDS011;2862;52.560;13.566;2023-02-15T08:38:03;92.50;;;30.70;;
5678;SDS011;2862;52.560;13.566;2023-02-15T08:48:43;97.67;;;29.13;;
5678;SDS011;2862;52.560;13.566;2023-02-15T08:58:54;107.67;;;31.67;;
5678;SDS011;2862;52.560;13.566;2023-02-15T09:08:58;94.97;;;29.97;;
5678;SDS011;2862;52.560;13.566;2023-02-15T09:19:02;104.13;;;33.70;;
5678;SDS011;2862;52.560;13.566;2023-02-15T09:29:07;89.30;;;29.90;;
5678;SDS011;2862;52.560;13.566;2023-02-15T09:39:12;83.87;;;29.20;;
5678;SDS011;2862;52.560;13.566;2023-02-15T09:49:18;96.13;;;34.10;;
5678;SDS011;2862;52.560;13.566;2023-02-15T09:59:32;99.97;;;33.00;;
5678;SDS011;2862;52.560;13.566;2023-02-15T10:09:44;87.70;;;32.27;;
5678;SDS011;2862;52.560;13.566;2023-02-15T10:20:00;87.73;;;30.87;;
5678;SDS011;2862;52.560;13.566;2023-02-15T10:30:13;82.43;;;29.93;;
5678;SDS011;2862;52.560;13.566;2023-02-15T10:40:20;72.00;;;29.37;;
5678;SDS011;2862;52.560;13.566;2023-02-15T10:50:34;89.43;;;30.57;;
5678;SDS011;2862;52.560;13.566;2023-02-15T11:00:51;95.57;;;33.37;;
5678;SDS011;2862;52.560;13.566;2023-02-15T11:11:03;78.10;;;31.20;;
5678;SDS011;2862;52.560;13.566;2023-02-15T11:21:12;86.20;;;36.07;;
5678;SDS011;2862;52.560;13.566;2023-02-15T11:31:21;74.63;;;29.50;;
5678;SDS011;2862;52.560;13.566;2023-02-15T11:41:29;71.37;;;29.27;;
5678;SDS011;2862;52.560;13.566;2023-02-15T11:51:36;67.47;;;28.13;;
5678;SDS011;2862;52.560;13.566;2023-02-15T12:01:42;68.20;;;27.67;;
5678;SDS011;2862;52.560;13.566;2023-02-15T12:11:46;59.00;;;24.10;;
5678;SDS011;2862;52.560;13.566;2023-02-15T12:21:51;64.30;;;26.27;;
5678;SDS011;2862;52.560;13.566;2023-02-15T12:31:56;59.50;;;23.60;;
5678;SDS011;2862;52.560;13.566;2023-02-15T12:42:03;52.60;;;21.57;;
5678;SDS011;2862;52.560;13.566;2023-02-15T12:52:23;48.50;;;18.90;;
5678;SDS011;2862;52.560;13.566;2023-02-15T13:02:29;54.30;;;21.90;;
5678;SDS011;2862;52.560;13.566;2023-02-15T13:12:37;53.30;;;21.17;;
5678;SDS011;2862;52.560;13.566;2023-02-15T13:22:42;48.77;;;18.30;;
5678;SDS011;2862;52.560;13.566;2023-02-15T13:32:49;56.00;;;21.97;;
5678;SDS011;2862;52.560;13.566;2023-02-15T13:42:59;43.80;;;18.00;;
5678;SDS011;2862;52.560;13.566;2023-02-15T13:53:12;55.87;;;20.63;;
5678;SDS011;2862;52.560;13.566;2023-02-15T14:14:15;55.90;;;21.23;;
5678;SDS011;2862;52.560;13.566;2023-02-15T14:24:43;50.67;;;20.73;;
5678;SDS011;2862;52.560;13.566;2023-02-15T14:34:51;72.10;;;33.70;;
5678;SDS011;2862;52.560;13.566;2023-02-15T14:45:00;70.87;;;31.50;;
5678;SDS011;2862;52.560;13.566;2023-02-15T14:55:07;44.30;;;18.10;;
5678;SDS011;2862;52.560;13.566;2023-02-15T15:05:14;50.40;;;20.50;;
5678;SDS011;2862;52.560;13.566;2023-02-15T15:15:34;52.77;;;21.07;;
5678;SDS011;2862;52.560;13.566;2023-02-15T15:25:49;49.23;;;19.50;;
5678;SDS011;2862;52.560;13.566;2023-02-15T15:36:01;45.47;;;18.10;;
5678;SDS011;2862;52.560;13.566;2023-02-15T15:46:29;52.60;;;20.60;;
5678;SDS011;2862;52.560;13.566;2023-02-15T15:56:49;48.63;;;19.50;;
5678;SDS011;2862;52.560;13.566;2023-02-15T16:06:57;56.57;;;20.40;;
5678;SDS011;2862;52.560;13.566;2023-02-15T16:17:01;50.03;;;19.37;;
5678;SDS011;2862;52.560;13.566;2023-02-15T16:27:11;70.87;;;31.57;;
5678;SDS011;2862;52.560;13.566;2023-02-15T16:37:26;50.90;;;21.40;;
5678;SDS011;2862;52.560;13.566;2023-02-15T16:47:33;49.53;;;19.00;;
5678;SDS011;2862;52.560;13.566;2023-02-15T16:57:43;49.70;;;20.13;;
5678;SDS011;2862;52.560;13.566;2023-02-15T17:07:51;52.77;;;20.57;;
5678;SDS011;2862;52.560;13.566;2023-02-15T17:18:09;56.07;;;20.63;;
5678;SDS011;2862;52.560;13.566;2023-02-15T17:28:20;51.97;;;18.77;;
5678;SDS011;2862;52.560;13.566;2023-02-15T17:38:26;48.50;;;20.60;;
5678;SDS011;2862;52.560;13.566;2023-02-15T17:48:32;82.37;;;32.73;;
5678;SDS011;2862;52.560;13.566;2023-02-15T17:58:37;54.00;;;22.00;;
5678;SDS011;2862;52.560;13.566;2023-02-15T18:08:42;57.40;;;22.40;;
5678;SDS011;2862;52.560;13.566;2023-02-15T18:19:03;61.00;;;23.53;;
5678;SDS011;2862;52.560;13.566;2023-02-15T18:29:08;60.17;;;24.90;;
5678;SDS011;2862;52.560;13.566;2023-02-15T18:39:19;61.93;;;25.13;;
5678;SDS011;2862;52.560;13.566;2023-02-15T18:49:32;61.97;;;22.90;;
5678;SDS011;2862;52.560;13.566;2023-02-15T18:59:35;58.57;;;24.67;;
5678;SDS011;2862;52.560;13.566;2023-02-15T19:09:39;59.93;;;24.17;;
5678;SDS011;2862;52.560;13.566;2023-02-15T19:19:42;62.53;;;24.73;;
5678;SDS011;2862;52.560;13.566;2023-02-15T19:29:47;53.93;;;22.67;;
5678;SDS011;2862;52.560;13.566;2023-02-15T19:39:50;52.77;;;20.83;;
5678;SDS011;2862;52.560;13.566;2023-02-15T19:49:55;60.10;;;22.23;;
5678;SDS011;2862;52.560;13.566;2023-02-15T20:00:08;64.97;;;25.17;;
5678;SDS011;2862;52.560;13.566;2023-02-15T20:10:25;60.50;;;23.00;;
5678;SDS011;2862;52.560;13.566;2023-02-15T20:20:30;61.07;;;24.47;;
5678;SDS011;2862;52.560;13.566;2023-02-15T20:30:41;49.13;;;20.93;;
5678;SDS011;2862;52.560;13.566;2023-02-15T20:40:46;51.57;;;20.73;;
5678;SDS011;2862;52.560;13.566;2023-02-15T20:51:11;51.77;;;21.13;;
5678;SDS011;2862;52.560;13.566;2023-02-15T21:01:18;62.20;;;24.60;;
5678;SDS011;2862;52.560;13.566;2023-02-15T21:11:22;52.20;;;22.63;;
5678;SDS011;2862;52.560;13.566;2023-02-15T21:21:25;58.13;;;22.10;;
5678;SDS011;2862;52.560;13.566;2023-02-15T21:31:31;52.67;;;21.00;;
5678;SDS011;2862;52.560;13.566;2023-02-15T21:41:34;56.30;;;25.07;;
5678;SDS011;2862;52.560;13.566;2023-02-15T21:51:56;51.37;;;21.60;;
5678;SDS011;2862;52.560;13.566;2023-02-15T22:02:37;46.83;;;20.60;;
5678;SDS011;2862;52.560;13.566;2023-02-15T22:12:42;51.90;;;23.70;;
5678;SDS011;2862;52.560;13.566;2023-02-15T22:22:45;54.33;;;22.60;;
5678;SDS011;2862;52.560;13.566;2023-02-15T22:32:50;47.10;;;20.57;;
5678;SDS011;2862;52.560;13.566;2023-02-15T22:42:53;49.10;;;21.40;;
5678;SDS011;2862;52.560;13.566;2023-02-15T22:52:59;49.57;;;19.67;;
5678;SDS011;2862;52.560;13.566;2023-02-15T23:03:08;54.80;;;21.10;;
5678;SDS011;2862;52.560;13.566;2023-02-15T23:13:21;49.43;;;20.47;;
5678;SDS011;2862;52.560;13.566;2023-02-15T23:23:27;52.47;;;23.07;;
5678;SDS011;2862;52.560;13.566;2023-02-15T23:33:36;49.93;;;20.10;;
5678;SDS011;2862;52.560;13.566;2023-02-15T23:43:39;46.53;;;19.83;;
5678;SDS011;2862;52.560;13.566;2023-02-15T23:53:46;53.83;;;21.90;;
